sensor_id;sensor_type;location;lat;lon;timestamp;P1;durP1;ratioP1;P2;durP2;ratioP2
45792;SDS011;31495;42.740;22.908;2023-04-24T00:00:24;9.85;;;6.13;;
45792;SDS011;31495;42.740;22.908;2023-04-24T00:01:23;13.82;;;6.28;;
45792;SDS011;31495;42.740;22.908;2023-04-24T00:02:22;10.18;;;6.45;;
45792;SDS011;31495;42.740;22.908;2023-04-24T00:03:23;10.68;;;7.30;;
45792;SDS011;31495;42.740;22.908;2023-04-24T00:04:23;9.70;;;6.93;;
45792;SDS011;31495;42.740;22.908;2023-04-24T00:05:25;12.13;;;6.10;;
45792;SDS011;31495;42.740;22.908;2023-04-24T00:06:25;13.60;;;6.80;;
45792;SDS011;31495;42.740;22.908;2023-04-24T00:07:32;9.60;;;6.43;;
45792;SDS011;31495;42.740;22.908;2023-04-24T00:08:32;7.72;;;5.55;;
45792;SDS011;31495;42.740;22.908;2023-04-24T00:09:32;8.95;;;6.10;;
45792;SDS011;31495;42.740;22.908;2023-04-24T00:10:32;8.30;;;6.22;;
45792;SDS011;31495;42.740;22.908;2023-04-24T00:11:31;8.63;;;5.43;;
45792;SDS011;31495;42.740;22.908;2023-04-24T00:12:31;8.70;;;5.28;;
45792;SDS011;31495;42.740;22.908;2023-04-24T00:13:30;7.65;;;5.25;;
45792;SDS011;31495;42.740;22.908;2023-04-24T00:14:30;8.75;;;5.18;;
45792;SDS011;31495;42.740;22.908;2023-04-24T00:15:30;7.22;;;4.47;;
45792;SDS011;31495;42.740;22.908;2023-04-24T00:16:30;8.88;;;5.93;;
45792;SDS011;31495;42.740;22.908;2023-04-24T00:17:29;7.20;;;4.55;;
45792;SDS011;31495;42.740;22.908;2023-04-24T00:18:29;8.15;;;5.00;;
45792;SDS011;31495;42.740;22.908;2023-04-24T00:19:29;6.25;;;4.63;;
45792;SDS011;31495;42.740;22.908;2023-04-24T00:20:28;6.72;;;4.80;;
45792;SDS011;31495;42.740;22.908;2023-04-24T00:21:32;8.32;;;5.57;;
45792;SDS011;31495;42.740;22.908;2023-04-24T00:22:31;6.80;;;5.40;;
45792;SDS011;31495;42.740;22.908;2023-04-24T00:23:31;11.13;;;5.45;;
45792;SDS011;31495;42.740;22.908;2023-04-24T00:24:31;6.82;;;4.97;;
45792;SDS011;31495;42.740;22.908;2023-04-24T00:25:30;6.95;;;4.50;;
45792;SDS011;31495;42.740;22.908;2023-04-24T00:26:30;7.53;;;5.05;;
45792;SDS011;31495;42.740;22.908;2023-04-24T00:27:29;8.38;;;4.38;;
45792;SDS011;31495;42.740;22.908;2023-04-24T00:28:29;7.40;;;4.85;;
45792;SDS011;31495;42.740;22.908;2023-04-24T00:29:29;6.97;;;4.38;;
45792;SDS011;31495;42.740;22.908;2023-04-24T00:30:28;9.73;;;4.82;;
45792;SDS011;31495;42.740;22.908;2023-04-24T00:31:28;8.77;;;4.53;;
45792;SDS011;31495;42.740;22.908;2023-04-24T00:32:28;6.03;;;4.03;;
45792;SDS011;31495;42.740;22.908;2023-04-24T00:33:27;10.18;;;4.95;;
45792;SDS011;31495;42.740;22.908;2023-04-24T00:34:27;10.13;;;5.07;;
45792;SDS011;31495;42.740;22.908;2023-04-24T00:35:26;6.80;;;5.15;;
45792;SDS011;31495;42.740;22.908;2023-04-24T00:36:25;6.10;;;4.78;;
45792;SDS011;31495;42.740;22.908;2023-04-24T00:37:26;9.40;;;4.57;;
45792;SDS011;31495;42.740;22.908;2023-04-24T00:38:25;8.23;;;5.20;;
45792;SDS011;31495;42.740;22.908;2023-04-24T00:39:25;6.13;;;4.70;;
45792;SDS011;31495;42.740;22.908;2023-04-24T00:40:24;8.20;;;5.25;;
45792;SDS011;31495;42.740;22.908;2023-04-24T00:41:24;9.68;;;4.97;;
45792;SDS011;31495;42.740;22.908;2023-04-24T00:42:24;8.65;;;4.75;;
45792;SDS011;31495;42.740;22.908;2023-04-24T00:43:24;9.35;;;5.60;;
45792;SDS011;31495;42.740;22.908;2023-04-24T00:44:24;5.90;;;4.25;;
45792;SDS011;31495;42.740;22.908;2023-04-24T00:45:24;6.85;;;4.65;;
45792;SDS011;31495;42.740;22.908;2023-04-24T00:46:24;8.73;;;4.55;;
45792;SDS011;31495;42.740;22.908;2023-04-24T00:47:23;7.18;;;4.75;;
45792;SDS011;31495;42.740;22.908;2023-04-24T00:48:23;15.27;;;4.50;;
45792;SDS011;31495;42.740;22.908;2023-04-24T00:49:24;6.30;;;5.07;;
45792;SDS011;31495;42.740;22.908;2023-04-24T00:50:24;9.48;;;4.85;;
45792;SDS011;31495;42.740;22.908;2023-04-24T00:51:24;8.77;;;4.47;;
45792;SDS011;31495;42.740;22.908;2023-04-24T00:52:23;8.38;;;5.20;;
45792;SDS011;31495;42.740;22.908;2023-04-24T00:53:23;9.10;;;4.40;;
45792;SDS011;31495;42.740;22.908;2023-04-24T00:54:23;8.27;;;5.25;;
45792;SDS011;31495;42.740;22.908;2023-04-24T00:55:22;9.50;;;4.55;;
45792;SDS011;31495;42.740;22.908;2023-04-24T00:56:21;7.88;;;5.25;;
45792;SDS011;31495;42.740;22.908;2023-04-24T00:57:22;9.25;;;4.60;;
45792;SDS011;31495;42.740;22.908;2023-04-24T00:58:22;7.25;;;4.75;;
45792;SDS011;31495;42.740;22.908;2023-04-24T00:59:22;8.25;;;4.75;;
45792;SDS011;31495;42.740;22.908;2023-04-24T01:00:22;11.02;;;4.97;;
45792;SDS011;31495;42.740;22.908;2023-04-24T01:01:23;8.23;;;5.22;;
45792;SDS011;31495;42.740;22.908;2023-04-24T01:02:23;8.98;;;4.90;;
45792;SDS011;31495;42.740;22.908;2023-04-24T01:03:24;6.20;;;4.65;;
45792;SDS011;31495;42.740;22.908;2023-04-24T01:04:28;8.15;;;5.10;;
45792;SDS011;31495;42.740;22.908;2023-04-24T01:05:28;10.68;;;5.05;;
45792;SDS011;31495;42.740;22.908;2023-04-24T01:06:28;6.10;;;4.80;;
45792;SDS011;31495;42.740;22.908;2023-04-24T01:07:30;9.05;;;5.40;;
45792;SDS011;31495;42.740;22.908;2023-04-24T01:08:30;8.05;;;5.22;;
45792;SDS011;31495;42.740;22.908;2023-04-24T01:09:30;7.07;;;4.88;;
45792;SDS011;31495;42.740;22.908;2023-04-24T01:10:30;8.30;;;5.40;;
45792;SDS011;31495;42.740;22.908;2023-04-24T01:11:32;7.47;;;4.88;;
45792;SDS011;31495;42.740;22.908;2023-04-24T01:12:31;7.43;;;4.97;;
45792;SDS011;31495;42.740;22.908;2023-04-24T01:13:32;10.60;;;5.68;;
45792;SDS011;31495;42.740;22.908;2023-04-24T01:14:32;9.25;;;5.22;;
45792;SDS011;31495;42.740;22.908;2023-04-24T01:15:32;9.57;;;5.15;;
45792;SDS011;31495;42.740;22.908;2023-04-24T01:16:31;7.28;;;4.40;;
45792;SDS011;31495;42.740;22.908;2023-04-24T01:17:30;8.20;;;5.38;;
45792;SDS011;31495;42.740;22.908;2023-04-24T01:18:30;6.85;;;4.95;;
45792;SDS011;31495;42.740;22.908;2023-04-24T01:19:29;8.05;;;5.05;;
45792;SDS011;31495;42.740;22.908;2023-04-24T01:20:29;10.68;;;5.10;;
45792;SDS011;31495;42.740;22.908;2023-04-24T01:21:29;6.88;;;5.10;;
45792;SDS011;31495;42.740;22.908;2023-04-24T01:22:30;11.48;;;5.50;;
45792;SDS011;31495;42.740;22.908;2023-04-24T01:23:29;10.32;;;5.80;;
45792;SDS011;31495;42.740;22.908;2023-04-24T01:24:29;7.65;;;5.20;;
45792;SDS011;31495;42.740;22.908;2023-04-24T01:25:29;8.20;;;5.30;;
45792;SDS011;31495;42.740;22.908;2023-04-24T01:26:30;8.57;;;5.30;;
45792;SDS011;31495;42.740;22.908;2023-04-24T01:27:30;9.57;;;5.57;;
45792;SDS011;31495;42.740;22.908;2023-04-24T01:28:29;6.82;;;5.05;;
45792;SDS011;31495;42.740;22.908;2023-04-24T01:29:29;10.32;;;5.35;;
45792;SDS011;31495;42.740;22.908;2023-04-24T01:30:30;8.18;;;5.32;;
45792;SDS011;31495;42.740;22.908;2023-04-24T01:31:30;7.82;;;5.57;;
45792;SDS011;31495;42.740;22.908;2023-04-24T01:32:30;7.82;;;4.97;;
45792;SDS011;31495;42.740;22.908;2023-04-24T01:33:30;7.60;;;5.03;;
45792;SDS011;31495;42.740;22.908;2023-04-24T01:34:30;8.20;;;4.85;;
45792;SDS011;31495;42.740;22.908;2023-04-24T01:35:29;9.50;;;5.68;;
45792;SDS011;31495;42.740;22.908;2023-04-24T01:36:29;7.95;;;5.20;;
45792;SDS011;31495;42.740;22.908;2023-04-24T01:37:30;9.93;;;6.00;;
45792;SDS011;31495;42.740;22.908;2023-04-24T01:38:31;10.98;;;4.97;;
45792;SDS011;31495;42.740;22.908;2023-04-24T01:39:31;8.70;;;5.82;;
45792;SDS011;31495;42.740;22.908;2023-04-24T01:40:32;9.18;;;5.15;;
45792;SDS011;31495;42.740;22.908;2023-04-24T01:41:31;8.20;;;6.38;;
45792;SDS011;31495;42.740;22.908;2023-04-24T01:42:31;8.65;;;5.55;;
45792;SDS011;31495;42.740;22.908;2023-04-24T01:43:30;12.02;;;5.72;;
45792;SDS011;31495;42.740;22.908;2023-04-24T01:44:31;8.63;;;6.22;;
45792;SDS011;31495;42.740;22.908;2023-04-24T01:45:31;10.52;;;6.13;;
45792;SDS011;31495;42.740;22.908;2023-04-24T01:46:31;10.50;;;6.18;;
45792;SDS011;31495;42.740;22.908;2023-04-24T01:47:31;9.98;;;5.38;;
45792;SDS011;31495;42.740;22.908;2023-04-24T01:48:31;9.70;;;5.80;;
45792;SDS011;31495;42.740;22.908;2023-04-24T01:49:31;15.02;;;6.13;;
45792;SDS011;31495;42.740;22.908;2023-04-24T01:50:32;9.90;;;5.20;;
45792;SDS011;31495;42.740;22.908;2023-04-24T01:51:32;9.15;;;6.57;;
45792;SDS011;31495;42.740;22.908;2023-04-24T01:52:32;9.20;;;6.55;;
45792;SDS011;31495;42.740;22.908;2023-04-24T01:53:32;9.13;;;5.97;;
45792;SDS011;31495;42.740;22.908;2023-04-24T01:54:31;11.90;;;7.10;;
45792;SDS011;31495;42.740;22.908;2023-04-24T01:55:31;7.30;;;5.30;;
45792;SDS011;31495;42.740;22.908;2023-04-24T01:56:30;9.20;;;5.32;;
45792;SDS011;31495;42.740;22.908;2023-04-24T01:57:33;11.02;;;5.63;;
45792;SDS011;31495;42.740;22.908;2023-04-24T01:58:33;9.05;;;5.70;;
45792;SDS011;31495;42.740;22.908;2023-04-24T01:59:33;9.23;;;6.05;;
45792;SDS011;31495;42.740;22.908;2023-04-24T02:00:34;7.00;;;5.30;;
45792;SDS011;31495;42.740;22.908;2023-04-24T02:01:34;9.32;;;5.80;;
45792;SDS011;31495;42.740;22.908;2023-04-24T02:02:37;6.50;;;5.32;;
45792;SDS011;31495;42.740;22.908;2023-04-24T02:03:38;8.25;;;5.40;;
45792;SDS011;31495;42.740;22.908;2023-04-24T02:04:37;9.88;;;4.93;;
45792;SDS011;31495;42.740;22.908;2023-04-24T02:05:38;6.40;;;4.53;;
45792;SDS011;31495;42.740;22.908;2023-04-24T02:06:37;9.27;;;4.65;;
45792;SDS011;31495;42.740;22.908;2023-04-24T02:07:37;8.70;;;5.30;;
45792;SDS011;31495;42.740;22.908;2023-04-24T02:08:36;8.13;;;5.18;;
45792;SDS011;31495;42.740;22.908;2023-04-24T02:09:36;9.45;;;5.72;;
45792;SDS011;31495;42.740;22.908;2023-04-24T02:10:35;7.10;;;5.55;;
45792;SDS011;31495;42.740;22.908;2023-04-24T02:11:34;8.38;;;5.70;;
45792;SDS011;31495;42.740;22.908;2023-04-24T02:12:34;8.30;;;5.20;;
45792;SDS011;31495;42.740;22.908;2023-04-24T02:13:34;10.20;;;6.13;;
45792;SDS011;31495;42.740;22.908;2023-04-24T02:14:33;8.25;;;6.05;;
45792;SDS011;31495;42.740;22.908;2023-04-24T02:15:33;14.90;;;6.78;;
45792;SDS011;31495;42.740;22.908;2023-04-24T02:16:32;11.65;;;8.18;;
45792;SDS011;31495;42.740;22.908;2023-04-24T02:17:32;10.18;;;6.63;;
45792;SDS011;31495;42.740;22.908;2023-04-24T02:18:31;11.77;;;7.60;;
45792;SDS011;31495;42.740;22.908;2023-04-24T02:19:31;12.40;;;7.45;;
45792;SDS011;31495;42.740;22.908;2023-04-24T02:20:30;10.80;;;7.32;;
45792;SDS011;31495;42.740;22.908;2023-04-24T02:21:29;10.43;;;7.53;;
45792;SDS011;31495;42.740;22.908;2023-04-24T02:22:30;13.55;;;7.95;;
45792;SDS011;31495;42.740;22.908;2023-04-24T02:23:29;10.05;;;6.82;;
45792;SDS011;31495;42.740;22.908;2023-04-24T02:24:29;11.55;;;7.22;;
45792;SDS011;31495;42.740;22.908;2023-04-24T02:25:29;13.48;;;7.80;;
45792;SDS011;31495;42.740;22.908;2023-04-24T02:26:28;10.95;;;7.45;;
45792;SDS011;31495;42.740;22.908;2023-04-24T02:27:27;14.38;;;8.57;;
45792;SDS011;31495;42.740;22.908;2023-04-24T02:28:27;10.18;;;8.00;;
45792;SDS011;31495;42.740;22.908;2023-04-24T02:29:27;11.27;;;7.28;;
45792;SDS011;31495;42.740;22.908;2023-04-24T02:30:26;11.95;;;7.05;;
45792;SDS011;31495;42.740;22.908;2023-04-24T02:31:26;12.10;;;7.70;;
45792;SDS011;31495;42.740;22.908;2023-04-24T02:32:25;11.93;;;7.88;;
45792;SDS011;31495;42.740;22.908;2023-04-24T02:33:24;12.27;;;6.90;;
45792;SDS011;31495;42.740;22.908;2023-04-24T02:34:24;13.80;;;8.55;;
45792;SDS011;31495;42.740;22.908;2023-04-24T02:35:24;11.63;;;6.78;;
45792;SDS011;31495;42.740;22.908;2023-04-24T02:36:23;11.30;;;6.72;;
45792;SDS011;31495;42.740;22.908;2023-04-24T02:37:23;9.52;;;7.05;;
45792;SDS011;31495;42.740;22.908;2023-04-24T02:38:22;11.82;;;7.28;;
45792;SDS011;31495;42.740;22.908;2023-04-24T02:39:21;12.85;;;7.63;;
45792;SDS011;31495;42.740;22.908;2023-04-24T02:40:21;9.05;;;7.00;;
45792;SDS011;31495;42.740;22.908;2023-04-24T02:41:21;12.30;;;8.88;;
45792;SDS011;31495;42.740;22.908;2023-04-24T02:42:20;15.15;;;9.05;;
45792;SDS011;31495;42.740;22.908;2023-04-24T02:43:20;11.63;;;8.10;;
45792;SDS011;31495;42.740;22.908;2023-04-24T02:44:20;12.93;;;8.85;;
45792;SDS011;31495;42.740;22.908;2023-04-24T02:45:21;17.17;;;8.75;;
45792;SDS011;31495;42.740;22.908;2023-04-24T02:46:20;12.57;;;8.68;;
45792;SDS011;31495;42.740;22.908;2023-04-24T02:47:20;14.20;;;8.25;;
45792;SDS011;31495;42.740;22.908;2023-04-24T02:48:19;8.73;;;7.03;;
45792;SDS011;31495;42.740;22.908;2023-04-24T02:49:20;10.55;;;6.45;;
45792;SDS011;31495;42.740;22.908;2023-04-24T02:50:19;12.02;;;6.18;;
45792;SDS011;31495;42.740;22.908;2023-04-24T02:51:19;10.02;;;6.35;;
45792;SDS011;31495;42.740;22.908;2023-04-24T02:52:18;8.77;;;5.40;;
45792;SDS011;31495;42.740;22.908;2023-04-24T02:53:17;9.88;;;6.28;;
45792;SDS011;31495;42.740;22.908;2023-04-24T02:54:17;11.60;;;5.90;;
45792;SDS011;31495;42.740;22.908;2023-04-24T02:55:16;8.95;;;6.55;;
45792;SDS011;31495;42.740;22.908;2023-04-24T02:56:16;9.90;;;6.43;;
45792;SDS011;31495;42.740;22.908;2023-04-24T02:57:16;8.35;;;6.18;;
45792;SDS011;31495;42.740;22.908;2023-04-24T02:58:15;9.05;;;6.63;;
45792;SDS011;31495;42.740;22.908;2023-04-24T02:59:14;8.75;;;6.65;;
45792;SDS011;31495;42.740;22.908;2023-04-24T03:00:14;10.43;;;6.38;;
45792;SDS011;31495;42.740;22.908;2023-04-24T03:01:14;11.48;;;7.40;;
45792;SDS011;31495;42.740;22.908;2023-04-24T03:02:13;10.52;;;6.30;;
45792;SDS011;31495;42.740;22.908;2023-04-24T03:03:13;7.10;;;5.40;;
45792;SDS011;31495;42.740;22.908;2023-04-24T03:04:13;8.35;;;6.25;;
45792;SDS011;31495;42.740;22.908;2023-04-24T03:05:12;14.70;;;6.32;;
45792;SDS011;31495;42.740;22.908;2023-04-24T03:06:12;10.00;;;6.93;;
45792;SDS011;31495;42.740;22.908;2023-04-24T03:07:11;10.70;;;6.32;;
45792;SDS011;31495;42.740;22.908;2023-04-24T03:08:11;11.95;;;6.35;;
45792;SDS011;31495;42.740;22.908;2023-04-24T03:09:10;9.60;;;5.75;;
45792;SDS011;31495;42.740;22.908;2023-04-24T03:10:10;7.72;;;5.88;;
45792;SDS011;31495;42.740;22.908;2023-04-24T03:11:10;9.48;;;6.43;;
45792;SDS011;31495;42.740;22.908;2023-04-24T03:12:09;11.48;;;6.38;;
45792;SDS011;31495;42.740;22.908;2023-04-24T03:13:09;13.43;;;6.13;;
45792;SDS011;31495;42.740;22.908;2023-04-24T03:14:08;7.80;;;5.85;;
45792;SDS011;31495;42.740;22.908;2023-04-24T03:15:07;10.55;;;6.15;;
45792;SDS011;31495;42.740;22.908;2023-04-24T03:16:07;10.43;;;6.38;;
45792;SDS011;31495;42.740;22.908;2023-04-24T03:17:07;9.45;;;6.13;;
45792;SDS011;31495;42.740;22.908;2023-04-24T03:18:06;11.02;;;6.15;;
45792;SDS011;31495;42.740;22.908;2023-04-24T03:19:05;11.15;;;6.88;;
45792;SDS011;31495;42.740;22.908;2023-04-24T03:20:05;10.43;;;7.18;;
45792;SDS011;31495;42.740;22.908;2023-04-24T03:21:07;13.95;;;6.35;;
45792;SDS011;31495;42.740;22.908;2023-04-24T03:22:07;10.43;;;6.75;;
45792;SDS011;31495;42.740;22.908;2023-04-24T03:23:08;11.00;;;6.78;;
45792;SDS011;31495;42.740;22.908;2023-04-24T03:24:07;9.52;;;6.70;;
45792;SDS011;31495;42.740;22.908;2023-04-24T03:25:08;10.88;;;5.63;;
45792;SDS011;31495;42.740;22.908;2023-04-24T03:26:08;9.95;;;7.10;;
45792;SDS011;31495;42.740;22.908;2023-04-24T03:27:07;11.68;;;6.78;;
45792;SDS011;31495;42.740;22.908;2023-04-24T03:28:07;8.73;;;6.32;;
45792;SDS011;31495;42.740;22.908;2023-04-24T03:29:06;8.35;;;5.75;;
45792;SDS011;31495;42.740;22.908;2023-04-24T03:30:07;10.52;;;6.03;;
45792;SDS011;31495;42.740;22.908;2023-04-24T03:31:06;9.07;;;6.38;;
45792;SDS011;31495;42.740;22.908;2023-04-24T03:32:06;8.18;;;5.85;;
45792;SDS011;31495;42.740;22.908;2023-04-24T03:33:05;8.88;;;5.80;;
45792;SDS011;31495;42.740;22.908;2023-04-24T03:34:05;9.77;;;6.10;;
45792;SDS011;31495;42.740;22.908;2023-04-24T03:35:05;11.02;;;7.45;;
45792;SDS011;31495;42.740;22.908;2023-04-24T03:36:07;10.93;;;7.38;;
45792;SDS011;31495;42.740;22.908;2023-04-24T03:37:07;11.38;;;7.43;;
45792;SDS011;31495;42.740;22.908;2023-04-24T03:38:06;11.10;;;6.93;;
45792;SDS011;31495;42.740;22.908;2023-04-24T03:39:05;12.20;;;7.40;;
45792;SDS011;31495;42.740;22.908;2023-04-24T03:40:06;8.50;;;5.75;;
45792;SDS011;31495;42.740;22.908;2023-04-24T03:41:06;10.55;;;6.47;;
45792;SDS011;31495;42.740;22.908;2023-04-24T03:42:05;10.85;;;7.07;;
45792;SDS011;31495;42.740;22.908;2023-04-24T03:43:05;11.77;;;7.10;;
45792;SDS011;31495;42.740;22.908;2023-04-24T03:44:04;11.68;;;7.05;;
45792;SDS011;31495;42.740;22.908;2023-04-24T03:45:04;11.57;;;6.30;;
45792;SDS011;31495;42.740;22.908;2023-04-24T03:46:03;9.43;;;6.95;;
45792;SDS011;31495;42.740;22.908;2023-04-24T03:47:04;9.95;;;6.65;;
45792;SDS011;31495;42.740;22.908;2023-04-24T03:48:03;12.65;;;7.88;;
45792;SDS011;31495;42.740;22.908;2023-04-24T03:49:03;13.45;;;7.97;;
45792;SDS011;31495;42.740;22.908;2023-04-24T03:50:02;12.18;;;7.18;;
45792;SDS011;31495;42.740;22.908;2023-04-24T03:51:02;12.60;;;6.95;;
45792;SDS011;31495;42.740;22.908;2023-04-24T03:52:02;9.52;;;6.63;;
45792;SDS011;31495;42.740;22.908;2023-04-24T03:53:01;10.02;;;6.95;;
45792;SDS011;31495;42.740;22.908;2023-04-24T03:54:01;10.55;;;6.40;;
45792;SDS011;31495;42.740;22.908;2023-04-24T03:55:00;11.55;;;7.43;;
45792;SDS011;31495;42.740;22.908;2023-04-24T03:56:00;11.98;;;7.90;;
45792;SDS011;31495;42.740;22.908;2023-04-24T03:56:59;12.95;;;7.72;;
45792;SDS011;31495;42.740;22.908;2023-04-24T03:58:00;10.02;;;6.63;;
45792;SDS011;31495;42.740;22.908;2023-04-24T03:58:59;10.18;;;7.25;;
45792;SDS011;31495;42.740;22.908;2023-04-24T03:59:59;15.65;;;7.85;;
45792;SDS011;31495;42.740;22.908;2023-04-24T04:00:59;9.40;;;7.60;;
45792;SDS011;31495;42.740;22.908;2023-04-24T04:01:59;12.57;;;8.15;;
45792;SDS011;31495;42.740;22.908;2023-04-24T04:02:58;12.35;;;7.07;;
45792;SDS011;31495;42.740;22.908;2023-04-24T04:03:58;11.60;;;8.07;;
45792;SDS011;31495;42.740;22.908;2023-04-24T04:04:57;14.88;;;7.43;;
45792;SDS011;31495;42.740;22.908;2023-04-24T04:05:57;12.38;;;7.80;;
45792;SDS011;31495;42.740;22.908;2023-04-24T04:06:57;9.82;;;7.30;;
45792;SDS011;31495;42.740;22.908;2023-04-24T04:08:00;13.68;;;7.93;;
45792;SDS011;31495;42.740;22.908;2023-04-24T04:09:00;11.32;;;6.05;;
45792;SDS011;31495;42.740;22.908;2023-04-24T04:10:00;11.30;;;7.70;;
45792;SDS011;31495;42.740;22.908;2023-04-24T04:10:59;10.52;;;7.30;;
45792;SDS011;31495;42.740;22.908;2023-04-24T04:11:59;9.48;;;6.30;;
45792;SDS011;31495;42.740;22.908;2023-04-24T04:12:59;11.20;;;6.82;;
45792;SDS011;31495;42.740;22.908;2023-04-24T04:13:59;9.35;;;6.47;;
45792;SDS011;31495;42.740;22.908;2023-04-24T04:14:58;15.00;;;7.85;;
45792;SDS011;31495;42.740;22.908;2023-04-24T04:15:58;13.48;;;7.28;;
45792;SDS011;31495;42.740;22.908;2023-04-24T04:16:57;12.48;;;7.05;;
45792;SDS011;31495;42.740;22.908;2023-04-24T04:17:57;11.10;;;6.80;;
45792;SDS011;31495;42.740;22.908;2023-04-24T04:18:56;9.27;;;6.93;;
45792;SDS011;31495;42.740;22.908;2023-04-24T04:19:55;11.02;;;7.65;;
45792;SDS011;31495;42.740;22.908;2023-04-24T04:20:55;13.10;;;8.23;;
45792;SDS011;31495;42.740;22.908;2023-04-24T04:21:56;15.32;;;8.13;;
45792;SDS011;31495;42.740;22.908;2023-04-24T04:22:55;21.15;;;11.85;;
45792;SDS011;31495;42.740;22.908;2023-04-24T04:23:55;17.38;;;8.65;;
45792;SDS011;31495;42.740;22.908;2023-04-24T04:24:55;21.20;;;8.85;;
45792;SDS011;31495;42.740;22.908;2023-04-24T04:25:55;14.85;;;9.13;;
45792;SDS011;31495;42.740;22.908;2023-04-24T04:26:54;14.73;;;8.10;;
45792;SDS011;31495;42.740;22.908;2023-04-24T04:27:57;13.43;;;8.32;;
45792;SDS011;31495;42.740;22.908;2023-04-24T04:28:59;17.40;;;7.53;;
45792;SDS011;31495;42.740;22.908;2023-04-24T04:29:59;10.77;;;6.82;;
45792;SDS011;31495;42.740;22.908;2023-04-24T04:31:04;12.35;;;7.45;;
45792;SDS011;31495;42.740;22.908;2023-04-24T04:32:03;12.40;;;9.10;;
45792;SDS011;31495;42.740;22.908;2023-04-24T04:33:03;11.00;;;7.40;;
45792;SDS011;31495;42.740;22.908;2023-04-24T04:34:02;11.55;;;7.97;;
45792;SDS011;31495;42.740;22.908;2023-04-24T04:35:03;15.63;;;7.57;;
45792;SDS011;31495;42.740;22.908;2023-04-24T04:36:03;11.73;;;7.28;;
45792;SDS011;31495;42.740;22.908;2023-04-24T04:37:03;12.80;;;7.60;;
45792;SDS011;31495;42.740;22.908;2023-04-24T04:38:02;12.10;;;7.35;;
45792;SDS011;31495;42.740;22.908;2023-04-24T04:39:02;8.77;;;6.28;;
45792;SDS011;31495;42.740;22.908;2023-04-24T04:40:03;8.98;;;6.78;;
45792;SDS011;31495;42.740;22.908;2023-04-24T04:41:06;9.65;;;6.13;;
45792;SDS011;31495;42.740;22.908;2023-04-24T04:42:06;13.60;;;7.40;;
45792;SDS011;31495;42.740;22.908;2023-04-24T04:43:06;11.77;;;7.20;;
45792;SDS011;31495;42.740;22.908;2023-04-24T04:44:05;12.98;;;8.43;;
45792;SDS011;31495;42.740;22.908;2023-04-24T04:45:06;12.23;;;6.85;;
45792;SDS011;31495;42.740;22.908;2023-04-24T04:46:10;13.80;;;7.68;;
45792;SDS011;31495;42.740;22.908;2023-04-24T04:47:10;13.52;;;7.65;;
45792;SDS011;31495;42.740;22.908;2023-04-24T04:48:09;13.80;;;7.35;;
45792;SDS011;31495;42.740;22.908;2023-04-24T04:49:11;14.52;;;7.40;;
45792;SDS011;31495;42.740;22.908;2023-04-24T04:50:11;13.85;;;7.85;;
45792;SDS011;31495;42.740;22.908;2023-04-24T04:51:10;12.35;;;6.88;;
45792;SDS011;31495;42.740;22.908;2023-04-24T04:52:10;10.80;;;6.60;;
45792;SDS011;31495;42.740;22.908;2023-04-24T04:53:09;11.13;;;7.00;;
45792;SDS011;31495;42.740;22.908;2023-04-24T04:54:09;11.93;;;6.90;;
45792;SDS011;31495;42.740;22.908;2023-04-24T04:55:08;10.38;;;6.47;;
45792;SDS011;31495;42.740;22.908;2023-04-24T04:56:08;12.40;;;6.72;;
45792;SDS011;31495;42.740;22.908;2023-04-24T04:57:08;10.30;;;6.68;;
45792;SDS011;31495;42.740;22.908;2023-04-24T04:58:08;11.05;;;6.88;;
45792;SDS011;31495;42.740;22.908;2023-04-24T04:59:07;10.43;;;6.72;;
45792;SDS011;31495;42.740;22.908;2023-04-24T05:00:07;11.13;;;6.63;;
45792;SDS011;31495;42.740;22.908;2023-04-24T05:01:10;16.25;;;8.15;;
45792;SDS011;31495;42.740;22.908;2023-04-24T05:02:09;12.15;;;6.35;;
45792;SDS011;31495;42.740;22.908;2023-04-24T05:03:09;11.55;;;6.50;;
45792;SDS011;31495;42.740;22.908;2023-04-24T05:04:09;11.90;;;6.50;;
45792;SDS011;31495;42.740;22.908;2023-04-24T05:05:09;13.52;;;9.10;;
45792;SDS011;31495;42.740;22.908;2023-04-24T05:06:08;12.60;;;7.05;;
45792;SDS011;31495;42.740;22.908;2023-04-24T05:07:08;10.77;;;7.72;;
45792;SDS011;31495;42.740;22.908;2023-04-24T05:08:08;11.32;;;7.70;;
45792;SDS011;31495;42.740;22.908;2023-04-24T05:09:08;10.20;;;5.95;;
45792;SDS011;31495;42.740;22.908;2023-04-24T05:10:07;8.88;;;5.30;;
45792;SDS011;31495;42.740;22.908;2023-04-24T05:11:07;8.60;;;6.00;;
45792;SDS011;31495;42.740;22.908;2023-04-24T05:12:06;11.88;;;5.93;;
45792;SDS011;31495;42.740;22.908;2023-04-24T05:13:06;9.90;;;5.82;;
45792;SDS011;31495;42.740;22.908;2023-04-24T05:14:06;8.40;;;6.25;;
45792;SDS011;31495;42.740;22.908;2023-04-24T05:15:05;9.75;;;6.38;;
45792;SDS011;31495;42.740;22.908;2023-04-24T05:16:05;9.50;;;6.15;;
45792;SDS011;31495;42.740;22.908;2023-04-24T05:17:05;9.73;;;6.03;;
45792;SDS011;31495;42.740;22.908;2023-04-24T05:18:04;12.60;;;6.18;;
45792;SDS011;31495;42.740;22.908;2023-04-24T05:19:04;11.82;;;7.28;;
45792;SDS011;31495;42.740;22.908;2023-04-24T05:20:05;10.00;;;7.60;;
45792;SDS011;31495;42.740;22.908;2023-04-24T05:21:05;12.90;;;7.47;;
45792;SDS011;31495;42.740;22.908;2023-04-24T05:22:05;12.10;;;7.32;;
45792;SDS011;31495;42.740;22.908;2023-04-24T05:23:05;9.68;;;6.65;;
45792;SDS011;31495;42.740;22.908;2023-04-24T05:24:05;13.00;;;6.93;;
45792;SDS011;31495;42.740;22.908;2023-04-24T05:25:05;13.18;;;6.85;;
45792;SDS011;31495;42.740;22.908;2023-04-24T05:26:05;11.90;;;6.28;;
45792;SDS011;31495;42.740;22.908;2023-04-24T05:27:05;8.85;;;5.93;;
45792;SDS011;31495;42.740;22.908;2023-04-24T05:28:04;13.77;;;7.25;;
45792;SDS011;31495;42.740;22.908;2023-04-24T05:29:04;14.50;;;7.30;;
45792;SDS011;31495;42.740;22.908;2023-04-24T05:30:04;13.55;;;7.00;;
45792;SDS011;31495;42.740;22.908;2023-04-24T05:31:04;17.52;;;7.50;;
45792;SDS011;31495;42.740;22.908;2023-04-24T05:32:04;9.50;;;6.70;;
45792;SDS011;31495;42.740;22.908;2023-04-24T05:33:04;8.75;;;6.40;;
45792;SDS011;31495;42.740;22.908;2023-04-24T05:34:03;9.43;;;6.28;;
45792;SDS011;31495;42.740;22.908;2023-04-24T05:35:02;14.50;;;7.03;;
45792;SDS011;31495;42.740;22.908;2023-04-24T05:36:02;12.98;;;6.25;;
45792;SDS011;31495;42.740;22.908;2023-04-24T05:37:02;10.02;;;5.75;;
45792;SDS011;31495;42.740;22.908;2023-04-24T05:38:02;13.90;;;6.68;;
45792;SDS011;31495;42.740;22.908;2023-04-24T05:39:02;8.10;;;6.13;;
45792;SDS011;31495;42.740;22.908;2023-04-24T05:40:04;12.02;;;6.50;;
45792;SDS011;31495;42.740;22.908;2023-04-24T05:41:04;14.02;;;6.78;;
45792;SDS011;31495;42.740;22.908;2023-04-24T05:42:04;8.88;;;5.82;;
45792;SDS011;31495;42.740;22.908;2023-04-24T05:43:04;12.40;;;6.57;;
45792;SDS011;31495;42.740;22.908;2023-04-24T05:44:04;7.70;;;5.10;;
45792;SDS011;31495;42.740;22.908;2023-04-24T05:45:04;10.77;;;5.53;;
45792;SDS011;31495;42.740;22.908;2023-04-24T05:46:06;13.65;;;5.72;;
45792;SDS011;31495;42.740;22.908;2023-04-24T05:47:06;15.30;;;5.68;;
45792;SDS011;31495;42.740;22.908;2023-04-24T05:48:05;11.70;;;5.97;;
45792;SDS011;31495;42.740;22.908;2023-04-24T05:49:04;9.10;;;5.72;;
45792;SDS011;31495;42.740;22.908;2023-04-24T05:50:05;11.60;;;5.78;;
45792;SDS011;31495;42.740;22.908;2023-04-24T05:51:05;8.75;;;5.43;;
45792;SDS011;31495;42.740;22.908;2023-04-24T05:52:04;5.63;;;4.47;;
45792;SDS011;31495;42.740;22.908;2023-04-24T05:53:05;9.23;;;5.60;;